Time;durP1;ratioP1;P1;durP2;ratioP2;P2;SDS_P1;SDS_P2;PMS_P1;PMS_P2;Temp;Humidity;BMP_temperature;BMP_pressure;BME280_temperature;BME280_humidity;BME280_pressure;Samples;Min_cycle;Max_cycle;Signal;HPM_P1;HPM_P2
2023/08/28 00:00:49;;;;;;;1.80;0.80;;;13.70;99.90;;;;;;4809436;29;20073;-82
2023/08/28 00:03:15;;;;;;;2.55;0.80;;;13.70;99.90;;;;;;4837859;29;20109;-82
2023/08/28 00:05:40;;;;;;;1.77;0.68;;;13.70;99.90;;;;;;4802171;29;20077;-82
2023/08/28 00:08:07;;;;;;;0.90;0.65;;;13.70;99.90;;;;;;4821883;29;20044;-82
2023/08/28 00:10:32;;;;;;;1.97;0.90;;;13.70;99.90;;;;;;4825266;29;20368;-81
2023/08/28 00:12:58;;;;;;;3.05;0.95;;;13.60;99.90;;;;;;4826949;29;20047;-82
2023/08/28 00:15:24;;;;;;;2.83;1.00;;;13.60;99.90;;;;;;4823903;29;20060;-82
2023/08/28 00:17:50;;;;;;;2.90;0.90;;;13.60;99.90;;;;;;4835267;29;20584;-82
2023/08/28 00:20:16;;;;;;;3.65;1.20;;;13.60;99.90;;;;;;4808040;29;20049;-81
2023/08/28 00:22:42;;;;;;;1.58;0.80;;;13.50;99.90;;;;;;4793885;29;20068;-82
2023/08/28 00:25:08;;;;;;;4.45;0.80;;;13.50;99.90;;;;;;4809866;29;20585;-82
2023/08/28 00:27:34;;;;;;;2.85;0.68;;;13.50;99.90;;;;;;4834766;29;20042;-82
2023/08/28 00:30:01;;;;;;;2.30;0.68;;;13.50;99.90;;;;;;4822493;29;20513;-81
2023/08/28 00:32:27;;;;;;;1.30;0.70;;;13.40;99.90;;;;;;4804136;29;20094;-82
2023/08/28 00:34:54;;;;;;;1.45;0.80;;;13.40;99.90;;;;;;4844112;29;20512;-82
2023/08/28 00:37:19;;;;;;;2.13;0.75;;;13.40;99.90;;;;;;4817849;29;20046;-81
2023/08/28 00:39:45;;;;;;;4.13;0.82;;;13.40;99.90;;;;;;4792781;29;20316;-82
2023/08/28 00:42:11;;;;;;;2.35;0.70;;;13.40;99.90;;;;;;4793641;29;20592;-82
2023/08/28 00:44:37;;;;;;;4.30;1.00;;;13.30;99.90;;;;;;4831821;29;20521;-81
2023/08/28 00:47:05;;;;;;;1.67;0.70;;;13.40;99.90;;;;;;4819544;29;20037;-81
2023/08/28 00:49:32;;;;;;;1.33;0.88;;;13.40;99.90;;;;;;4840447;29;20041;-82
2023/08/28 00:51:58;;;;;;;2.42;0.88;;;13.40;99.90;;;;;;4813255;29;20052;-81
2023/08/28 00:54:24;;;;;;;2.10;1.10;;;13.30;99.90;;;;;;4818735;29;20057;-82
2023/08/28 00:56:53;;;;;;;2.97;0.93;;;13.30;99.90;;;;;;4811536;29;20053;-83
2023/08/28 00:59:18;;;;;;;2.42;0.90;;;13.30;99.90;;;;;;4819193;29;20433;-82
2023/08/28 01:01:44;;;;;;;1.95;0.80;;;13.40;99.90;;;;;;4809262;29;20061;-82
2023/08/28 01:04:10;;;;;;;2.22;0.73;;;13.40;99.90;;;;;;4832106;29;20516;-82
2023/08/28 01:06:51;;;;;;;1.63;1.00;;;13.40;99.90;;;;;;4806447;29;20049;-82
2023/08/28 01:09:34;;;;;;;1.13;0.57;;;13.40;99.90;;;;;;4831104;29;20101;-82
2023/08/28 01:12:30;;;;;;;1.08;0.73;;;13.40;99.90;;;;;;4851859;29;20490;-83
2023/08/28 01:15:21;;;;;;;1.33;0.70;;;13.50;99.90;;;;;;4808674;29;20057;-81
2023/08/28 01:17:51;;;;;;;2.10;0.90;;;13.40;99.90;;;;;;4847073;29;20159;-82
2023/08/28 01:20:17;;;;;;;2.78;0.70;;;13.40;99.90;;;;;;4828113;29;20057;-82
2023/08/28 01:23:04;;;;;;;2.65;1.30;;;13.40;99.90;;;;;;4811322;29;20106;-82
2023/08/28 01:25:32;;;;;;;3.20;0.80;;;13.50;99.90;;;;;;4822029;29;20053;-83
2023/08/28 01:27:59;;;;;;;1.98;0.65;;;13.50;99.90;;;;;;4823780;29;20053;-84
2023/08/28 01:30:25;;;;;;;4.28;0.80;;;13.40;99.90;;;;;;4824275;29;20346;-83
2023/08/28 01:32:51;;;;;;;2.85;0.70;;;13.50;99.90;;;;;;4807964;29;20042;-83
2023/08/28 01:35:21;;;;;;;1.38;0.60;;;13.50;99.90;;;;;;4806484;29;20105;-84
2023/08/28 01:37:50;;;;;;;1.45;0.80;;;13.50;99.90;;;;;;4820717;29;20049;-85
2023/08/28 01:40:20;;;;;;;2.60;0.80;;;13.50;99.90;;;;;;4838074;29;20049;-84
2023/08/28 01:42:46;;;;;;;1.80;0.60;;;13.60;99.90;;;;;;4824605;29;20486;-85
2023/08/28 01:45:15;;;;;;;4.28;1.30;;;13.60;99.90;;;;;;4815786;29;20542;-85
2023/08/28 01:47:41;;;;;;;1.40;0.80;;;13.60;99.90;;;;;;4808839;29;20064;-85
2023/08/28 01:50:07;;;;;;;3.28;0.88;;;13.50;99.90;;;;;;4831397;29;20603;-84
2023/08/28 01:52:33;;;;;;;1.25;0.85;;;13.60;99.90;;;;;;4818291;29;20041;-84
2023/08/28 01:54:59;;;;;;;2.05;0.90;;;13.50;99.90;;;;;;4789007;29;20531;-85
2023/08/28 01:57:25;;;;;;;1.85;0.82;;;13.50;99.90;;;;;;4814459;29;20050;-85
2023/08/28 01:59:51;;;;;;;1.67;0.80;;;13.50;99.90;;;;;;4836581;29;20056;-83
2023/08/28 02:02:16;;;;;;;1.60;0.93;;;13.40;99.90;;;;;;4822435;29;20641;-83
2023/08/28 02:04:42;;;;;;;3.45;1.30;;;13.40;99.90;;;;;;4807081;29;20086;-83
2023/08/28 02:07:08;;;;;;;3.13;1.00;;;13.40;99.90;;;;;;4835088;29;20045;-83
2023/08/28 02:09:34;;;;;;;3.20;1.02;;;13.40;99.90;;;;;;4791727;29;20045;-83
2023/08/28 02:11:59;;;;;;;2.78;1.00;;;13.40;99.90;;;;;;4815158;29;20628;-83
2023/08/28 02:14:25;;;;;;;2.20;0.82;;;13.30;99.90;;;;;;4794020;29;20068;-83
2023/08/28 02:16:51;;;;;;;1.77;0.80;;;13.30;99.90;;;;;;4831342;29;20581;-83
2023/08/28 02:19:16;;;;;;;2.50;0.73;;;13.30;99.90;;;;;;4831642;29;20053;-83
2023/08/28 02:21:42;;;;;;;2.20;0.88;;;13.30;99.90;;;;;;4813940;29;20107;-82
2023/08/28 02:24:08;;;;;;;2.08;0.80;;;13.20;99.90;;;;;;4805073;29;20068;-83
2023/08/28 02:26:33;;;;;;;2.00;0.65;;;13.30;99.90;;;;;;4826623;29;20049;-82
2023/08/28 02:28:59;;;;;;;1.75;0.77;;;13.20;99.90;;;;;;4827244;29;20399;-83
2023/08/28 02:31:25;;;;;;;0.95;0.80;;;13.10;99.90;;;;;;4813964;29;20052;-83
2023/08/28 02:33:51;;;;;;;2.72;0.70;;;13.10;99.90;;;;;;4800732;29;20037;-84
2023/08/28 02:36:16;;;;;;;1.75;0.80;;;13.10;99.90;;;;;;4817500;29;20050;-83
2023/08/28 02:38:42;;;;;;;1.77;0.65;;;13.10;99.90;;;;;;4816209;29;20088;-83
2023/08/28 02:41:08;;;;;;;1.10;0.50;;;13.10;99.90;;;;;;4822934;29;20498;-83
2023/08/28 02:43:34;;;;;;;3.67;0.85;;;13.20;99.90;;;;;;4825544;29;20049;-84
2023/08/28 02:46:01;;;;;;;3.08;0.65;;;13.20;99.90;;;;;;4821306;29;20064;-82
2023/08/28 02:48:27;;;;;;;1.90;0.75;;;13.20;99.90;;;;;;4824153;29;20101;-83
2023/08/28 02:50:53;;;;;;;1.67;1.00;;;13.30;99.90;;;;;;4816718;29;20077;-83
2023/08/28 02:53:19;;;;;;;0.95;0.77;;;13.30;99.90;;;;;;4839071;29;20519;-84
2023/08/28 02:56:19;;;;;;;2.58;0.90;;;13.30;99.90;;;;;;4825404;29;20141;-83
2023/08/28 02:58:45;;;;;;;1.15;0.70;;;13.30;99.90;;;;;;4834622;29;20129;-83
2023/08/28 03:01:11;;;;;;;3.05;0.60;;;13.20;99.90;;;;;;4820517;29;20148;-83
2023/08/28 03:03:36;;;;;;;2.13;0.90;;;13.30;99.90;;;;;;4818344;29;20057;-83
2023/08/28 03:06:02;;;;;;;2.20;0.70;;;13.30;99.90;;;;;;4801726;29;20526;-82
2023/08/28 03:08:31;;;;;;;2.75;0.60;;;13.20;99.90;;;;;;4822196;29;20050;-83
2023/08/28 03:11:00;;;;;;;0.90;0.60;;;13.30;99.90;;;;;;4802760;29;20106;-82
2023/08/28 03:13:25;;;;;;;1.70;0.60;;;13.30;99.90;;;;;;4817857;29;20046;-83
2023/08/28 03:15:51;;;;;;;1.10;0.60;;;13.20;99.90;;;;;;4804726;29;20057;-83
2023/08/28 03:18:18;;;;;;;1.20;0.60;;;13.20;99.90;;;;;;4834751;29;20041;-84
2023/08/28 03:20:43;;;;;;;1.02;0.50;;;13.20;99.90;;;;;;4839806;29;20105;-83
2023/08/28 03:23:12;;;;;;;1.10;0.52;;;13.10;99.90;;;;;;4836142;29;20073;-83
2023/08/28 03:25:38;;;;;;;1.95;0.82;;;13.10;99.90;;;;;;4837799;29;20840;-83
2023/08/28 03:28:07;;;;;;;1.63;0.85;;;13.10;99.90;;;;;;4809581;29;20042;-83
2023/08/28 03:30:33;;;;;;;1.02;0.70;;;13.10;99.90;;;;;;4804836;29;20049;-82
2023/08/28 03:32:59;;;;;;;1.40;0.68;;;13.20;99.90;;;;;;4839671;29;20121;-83
2023/08/28 03:35:25;;;;;;;2.28;0.90;;;13.10;99.90;;;;;;4823181;29;20049;-83
2023/08/28 03:37:51;;;;;;;2.45;0.95;;;13.10;99.90;;;;;;4814782;29;20485;-83
2023/08/28 03:40:16;;;;;;;1.63;0.75;;;13.10;99.90;;;;;;4827788;29;20139;-83
2023/08/28 03:42:42;;;;;;;1.90;1.00;;;13.10;99.90;;;;;;4825292;29;20049;-83
2023/08/28 03:45:08;;;;;;;2.28;0.80;;;13.10;99.90;;;;;;4817631;29;20052;-83
2023/08/28 03:47:34;;;;;;;1.48;0.80;;;13.10;99.90;;;;;;4823934;29;20128;-83
2023/08/28 03:49:59;;;;;;;4.97;1.23;;;13.10;99.90;;;;;;4822680;29;20042;-82
2023/08/28 03:52:25;;;;;;;1.88;0.95;;;13.00;99.90;;;;;;4847282;29;20185;-82
2023/08/28 03:54:51;;;;;;;2.20;0.98;;;;;;;;;;4849113;29;20065;-83
2023/08/28 03:57:18;;;;;;;1.83;0.80;;;12.90;99.90;;;;;;4819996;29;20056;-83
2023/08/28 03:59:43;;;;;;;3.15;1.20;;;12.90;99.90;;;;;;4800111;29;20042;-83
2023/08/28 04:02:09;;;;;;;2.33;0.95;;;12.90;99.90;;;;;;4847225;29;20045;-83
2023/08/28 04:04:35;;;;;;;1.58;0.75;;;12.90;99.90;;;;;;4849194;29;20053;-83
2023/08/28 04:07:03;;;;;;;1.63;1.05;;;12.90;99.90;;;;;;4835373;29;20053;-82
2023/08/28 04:09:29;;;;;;;2.22;1.08;;;12.90;99.90;;;;;;4823706;29;20149;-83
2023/08/28 04:11:56;;;;;;;1.90;1.00;;;12.90;99.90;;;;;;4823050;29;20045;-83
2023/08/28 04:14:22;;;;;;;3.40;1.38;;;12.80;99.90;;;;;;4833009;29;20267;-83
2023/08/28 04:16:49;;;;;;;1.17;0.70;;;12.80;99.90;;;;;;4822588;29;20049;-83
2023/08/28 04:19:15;;;;;;;;;;;12.70;99.90;;;;;;4813940;29;20054;-83
2023/08/28 04:21:40;;;;;;;2.97;0.88;;;12.70;99.90;;;;;;4838225;29;19924;-83
2023/08/28 04:24:07;;;;;;;2.65;1.05;;;12.70;99.90;;;;;;4807915;29;20065;-83
2023/08/28 04:26:33;;;;;;;2.00;1.20;;;12.70;99.90;;;;;;4838891;29;20050;-83
2023/08/28 04:28:59;;;;;;;1.77;1.23;;;12.70;99.90;;;;;;4821380;29;20402;-83
2023/08/28 04:31:24;;;;;;;1.48;0.98;;;12.60;99.90;;;;;;4790351;29;20068;-83
2023/08/28 04:33:50;;;;;;;3.00;1.13;;;12.60;99.90;;;;;;4815830;29;20428;-83
2023/08/28 04:36:16;;;;;;;3.55;1.30;;;12.60;99.90;;;;;;4834763;29;20057;-83
2023/08/28 04:38:42;;;;;;;1.95;1.25;;;12.60;99.90;;;;;;4786748;29;20057;-83
2023/08/28 04:41:07;;;;;;;1.63;1.13;;;12.70;99.90;;;;;;4808240;29;20076;-84
2023/08/28 04:43:33;;;;;;;2.13;1.10;;;12.60;99.90;;;;;;4792152;29;20458;-84
2023/08/28 04:45:59;;;;;;;1.40;0.90;;;12.70;99.90;;;;;;4822680;29;20045;-83
2023/08/28 04:48:24;;;;;;;3.85;1.10;;;12.70;99.90;;;;;;4821564;29;20109;-83
2023/08/28 04:50:50;;;;;;;1.48;1.00;;;12.70;99.90;;;;;;4815812;29;20130;-83
2023/08/28 04:53:16;;;;;;;2.13;1.00;;;12.70;99.90;;;;;;4816088;29;20049;-84
2023/08/28 04:55:42;;;;;;;2.65;0.95;;;12.70;99.90;;;;;;4806904;29;20049;-83
2023/08/28 04:58:07;;;;;;;2.75;1.00;;;12.70;99.90;;;;;;4812838;29;20042;-83
2023/08/28 05:00:33;;;;;;;1.50;1.10;;;12.70;99.90;;;;;;4816409;29;20085;-83
2023/08/28 05:02:59;;;;;;;2.42;1.20;;;12.80;99.90;;;;;;4810574;29;20049;-82
2023/08/28 05:05:25;;;;;;;2.35;1.20;;;12.70;99.90;;;;;;4783114;29;20501;-83
2023/08/28 05:07:50;;;;;;;4.90;1.27;;;12.80;99.90;;;;;;4800656;29;20049;-83
2023/08/28 05:10:16;;;;;;;2.50;1.30;;;12.80;99.90;;;;;;4822152;29;20052;-83
2023/08/28 05:12:42;;;;;;;1.77;0.80;;;12.80;99.90;;;;;;4827974;29;20052;-83
2023/08/28 05:15:08;;;;;;;2.67;1.20;;;12.80;99.90;;;;;;4804904;29;20048;-83
2023/08/28 05:17:34;;;;;;;3.33;0.95;;;12.90;99.90;;;;;;4814496;29;20494;-84
2023/08/28 05:19:59;;;;;;;1.42;1.10;;;12.90;99.90;;;;;;4819847;29;20049;-84
2023/08/28 05:22:25;;;;;;;2.65;1.02;;;13.00;99.90;;;;;;4834957;29;20497;-85
2023/08/28 05:24:51;;;;;;;3.30;1.10;;;13.00;99.90;;;;;;4817536;29;20061;-84
2023/08/28 05:27:16;;;;;;;1.63;1.20;;;13.10;99.90;;;;;;4823517;29;20045;-85
2023/08/28 05:29:44;;;;;;;4.13;1.00;;;13.20;99.90;;;;;;4814373;29;20413;-85
2023/08/28 05:32:09;;;;;;;;;;;13.30;99.90;;;;;;4834484;29;20052;-85
2023/08/28 05:34:35;;;;;;;2.35;0.93;;;13.40;99.90;;;;;;4821975;29;19924;-85
2023/08/28 05:37:01;;;;;;;1.90;1.10;;;13.50;99.90;;;;;;4809002;29;20077;-84
2023/08/28 05:39:26;;;;;;;3.00;1.10;;;13.60;99.90;;;;;;4816665;29;20049;-85
2023/08/28 05:41:52;;;;;;;1.85;1.30;;;13.80;99.90;;;;;;4801589;29;20049;-86
2023/08/28 05:44:18;;;;;;;2.20;1.23;;;13.80;99.90;;;;;;4821607;29;20053;-85
2023/08/28 05:46:44;;;;;;;3.08;1.20;;;13.90;99.90;;;;;;4812720;29;20236;-85
2023/08/28 05:49:10;;;;;;;1.80;1.10;;;14.00;99.90;;;;;;4833306;29;20089;-85
2023/08/28 05:51:35;;;;;;;2.17;1.08;;;14.00;99.90;;;;;;4806585;29;20050;-85
2023/08/28 05:54:01;;;;;;;2.20;1.10;;;14.10;99.90;;;;;;4826896;29;20049;-86
2023/08/28 05:56:27;;;;;;;3.28;1.00;;;14.20;99.90;;;;;;4801678;29;20081;-86
2023/08/28 05:58:53;;;;;;;3.90;1.08;;;14.30;99.90;;;;;;4837014;29;20048;-86
2023/08/28 06:01:18;;;;;;;1.35;1.00;;;14.30;99.90;;;;;;4838946;29;20068;-86
2023/08/28 06:03:44;;;;;;;1.30;0.77;;;14.40;99.90;;;;;;4825512;29;20411;-85
2023/08/28 06:06:12;;;;;;;2.35;0.65;;;14.50;99.90;;;;;;4813251;29;20053;-85
2023/08/28 06:08:37;;;;;;;1.83;0.80;;;14.80;99.90;;;;;;4824632;29;20037;-85
2023/08/28 06:11:04;;;;;;;3.53;1.45;;;14.70;99.90;;;;;;4806943;29;20128;-85
2023/08/28 06:13:29;;;;;;;2.45;0.90;;;14.80;99.90;;;;;;4798504;29;20526;-86
2023/08/28 06:15:55;;;;;;;1.17;0.60;;;14.90;99.90;;;;;;4814790;29;20124;-87
2023/08/28 06:18:21;;;;;;;1.75;0.68;;;15.00;99.90;;;;;;4824084;29;20643;-89
2023/08/28 06:20:47;;;;;;;3.00;0.82;;;15.10;99.90;;;;;;4794339;29;20041;-89
2023/08/28 06:23:14;;;;;;;0.90;0.80;;;15.30;99.90;;;;;;4795830;29;20455;-91
2023/08/28 06:25:39;;;;;;;1.02;0.70;;;15.40;99.90;;;;;;4843331;29;20049;-88
2023/08/28 06:28:09;;;;;;;2.15;0.70;;;15.50;99.90;;;;;;4803090;29;20042;-88
2023/08/28 06:30:34;;;;;;;2.03;0.57;;;15.70;99.90;;;;;;4811783;29;20110;-87
2023/08/28 06:33:02;;;;;;;3.63;0.73;;;16.10;99.90;;;;;;4822405;29;20050;-87
2023/08/28 06:35:28;;;;;;;1.73;0.68;;;16.80;99.90;;;;;;4823971;29;20045;-88
2023/08/28 06:37:54;;;;;;;0.40;0.32;;;17.40;99.90;;;;;;4809444;29;20046;-89
2023/08/28 06:40:20;;;;;;;2.17;0.70;;;18.00;99.90;;;;;;4792457;29;20050;-90
2023/08/28 06:42:49;;;;;;;2.30;0.73;;;18.60;99.90;;;;;;4810972;29;20764;-90
2023/08/28 06:45:15;;;;;;;1.05;0.60;;;19.20;99.90;;;;;;4821931;29;20413;-91
2023/08/28 06:47:41;;;;;;;1.02;0.55;;;19.70;99.90;;;;;;4826377;29;20047;-89
2023/08/28 06:50:07;;;;;;;1.20;0.60;;;19.90;99.90;;;;;;4828135;29;20449;-80
2023/08/28 06:52:33;;;;;;;3.10;0.80;;;19.80;99.90;;;;;;4836215;29;20049;-89
2023/08/28 06:55:00;;;;;;;0.68;0.47;;;20.20;99.90;;;;;;4808597;29;20401;-86
2023/08/28 06:57:26;;;;;;;1.30;0.50;;;20.40;99.90;;;;;;4822105;29;20050;-87
2023/08/28 06:59:53;;;;;;;1.40;0.45;;;21.10;99.90;;;;;;4823677;29;20041;-86
2023/08/28 07:02:19;;;;;;;2.08;0.70;;;21.80;99.90;;;;;;4806685;29;20052;-85
2023/08/28 07:04:45;;;;;;;2.13;0.57;;;22.20;99.90;;;;;;4804015;29;20053;-88
2023/08/28 07:07:15;;;;;;;0.85;0.38;;;22.80;99.90;;;;;;4806901;29;20050;-87
2023/08/28 07:09:44;;;;;;;2.33;0.68;;;22.60;99.90;;;;;;4820492;29;20045;-87
2023/08/28 07:12:10;;;;;;;0.40;0.38;;;22.60;99.90;;;;;;4836190;29;20040;-87
2023/08/28 07:14:36;;;;;;;3.00;0.50;;;23.00;99.90;;;;;;4826918;29;20127;-86
2023/08/28 07:17:02;;;;;;;1.63;1.00;;;23.60;99.90;;;;;;4823726;29;20435;-87
2023/08/28 07:19:28;;;;;;;2.25;0.50;;;24.10;99.90;;;;;;4824035;29;20049;-85
2023/08/28 07:21:54;;;;;;;1.33;0.40;;;24.50;99.90;;;;;;4796574;29;20053;-89
2023/08/28 07:24:20;;;;;;;2.22;0.60;;;24.70;99.90;;;;;;4797376;29;20072;-88
2023/08/28 07:26:46;;;;;;;1.67;0.40;;;25.00;99.90;;;;;;4825350;29;20094;-88
2023/08/28 07:29:12;;;;;;;4.27;0.47;;;25.30;99.90;;;;;;4817334;29;20045;-86
2023/08/28 07:31:38;;;;;;;1.95;0.40;;;25.40;99.90;;;;;;4823287;29;20037;-86
2023/08/28 07:34:04;;;;;;;0.87;0.40;;;25.50;99.90;;;;;;4810155;29;20051;-86
2023/08/28 07:36:30;;;;;;;3.25;0.40;;;25.60;99.90;;;;;;4806662;29;20082;-86
2023/08/28 07:38:56;;;;;;;0.87;0.30;;;25.80;99.90;;;;;;4816296;29;20053;-85
2023/08/28 07:41:22;;;;;;;2.03;0.60;;;26.00;99.90;;;;;;4822314;29;20473;-85
2023/08/28 07:43:48;;;;;;;2.07;0.40;;;26.20;99.90;;;;;;4811338;29;20065;-84
2023/08/28 07:46:13;;;;;;;2.00;0.40;;;26.40;99.90;;;;;;4824576;29;20041;-84
2023/08/28 07:48:39;;;;;;;0.83;0.40;;;26.50;99.90;;;;;;4805691;29;20033;-85
2023/08/28 07:51:05;;;;;;;0.95;0.40;;;26.60;99.90;;;;;;4825127;29;20085;-84
2023/08/28 07:53:33;;;;;;;1.17;0.37;;;26.70;99.90;;;;;;4831841;29;20161;-86
2023/08/28 07:56:00;;;;;;;1.00;0.55;;;26.50;99.90;;;;;;4811546;29;20042;-88
2023/08/28 07:58:26;;;;;;;2.15;0.40;;;26.20;99.90;;;;;;4797651;29;20139;-84
2023/08/28 08:00:53;;;;;;;1.27;0.50;;;25.00;99.90;;;;;;4826140;29;20128;-86
2023/08/28 08:03:19;;;;;;;1.45;0.45;;;23.80;99.90;;;;;;4827408;29;20081;-87
2023/08/28 08:05:52;;;;;;;2.42;0.50;;;22.80;99.90;;;;;;4802216;29;20049;-87
2023/08/28 08:08:17;;;;;;;2.03;0.63;;;22.20;99.90;;;;;;4824859;29;20038;-87
2023/08/28 08:10:43;;;;;;;1.10;0.40;;;22.20;99.90;;;;;;4791807;29;20042;-82
2023/08/28 08:13:09;;;;;;;2.78;0.50;;;22.80;99.90;;;;;;4811901;29;20037;-87
2023/08/28 08:15:37;;;;;;;1.10;0.60;;;23.50;99.90;;;;;;4837885;29;20813;-86
2023/08/28 08:18:03;;;;;;;1.13;0.40;;;24.10;99.90;;;;;;4790993;29;20073;-89
2023/08/28 08:20:30;;;;;;;1.17;0.40;;;24.50;99.90;;;;;;4819908;29;20048;-89
2023/08/28 08:22:56;;;;;;;1.38;0.57;;;24.70;99.90;;;;;;4802399;29;20050;-87
2023/08/28 08:25:25;;;;;;;3.17;0.43;;;25.00;99.90;;;;;;4821438;29;20052;-88
2023/08/28 08:27:51;;;;;;;2.22;0.45;;;25.10;99.90;;;;;;4814400;29;20086;-88
2023/08/28 08:30:16;;;;;;;2.57;0.60;;;25.30;99.90;;;;;;4820527;29;20041;-88
2023/08/28 08:32:43;;;;;;;1.63;0.40;;;25.10;99.90;;;;;;4792790;29;20094;-86
2023/08/28 08:35:12;;;;;;;1.40;0.50;;;25.10;99.90;;;;;;4801004;29;20136;-85
2023/08/28 08:37:39;;;;;;;3.25;0.50;;;25.20;99.90;;;;;;4799012;29;20121;-85
2023/08/28 08:40:12;;;;;;;4.03;0.55;;;25.40;99.90;;;;;;4828207;29;20114;-85
2023/08/28 08:42:41;;;;;;;2.65;0.50;;;25.30;99.90;;;;;;4818857;29;20061;-87
2023/08/28 08:45:09;;;;;;;1.50;0.40;;;25.00;99.90;;;;;;4816054;29;20490;-83
2023/08/28 08:47:37;;;;;;;1.25;0.20;;;24.30;99.90;;;;;;4816996;29;20681;-82
2023/08/28 08:50:06;;;;;;;1.08;0.25;;;24.00;99.90;;;;;;4831791;29;20128;-85
2023/08/28 08:52:36;;;;;;;1.73;0.40;;;23.70;99.90;;;;;;4822690;29;20066;-82
2023/08/28 08:55:18;;;;;;;0.57;0.30;;;23.60;99.90;;;;;;4816743;29;20041;-81
2023/08/28 08:57:47;;;;;;;0.65;0.28;;;23.60;99.90;;;;;;4819673;29;20086;-87
2023/08/28 09:00:15;;;;;;;0.90;0.30;;;23.40;99.90;;;;;;4820894;29;20042;-82
2023/08/28 09:02:42;;;;;;;3.15;0.35;;;23.20;99.90;;;;;;4809597;29;20248;-82
2023/08/28 09:05:09;;;;;;;1.02;0.30;;;23.00;99.90;;;;;;4819775;29;20054;-90
2023/08/28 09:07:37;;;;;;;1.42;0.50;;;22.60;99.90;;;;;;4795883;29;20041;-86
2023/08/28 09:10:04;;;;;;;2.10;0.40;;;22.30;99.90;;;;;;4799741;29;20114;-84
2023/08/28 09:12:30;;;;;;;1.75;0.35;;;22.10;99.90;;;;;;4797276;29;20328;-84
2023/08/28 09:14:57;;;;;;;1.95;0.20;;;21.90;99.90;;;;;;4828980;29;20248;-82
2023/08/28 09:17:25;;;;;;;0.75;0.20;;;21.70;99.90;;;;;;4841974;29;20117;-88
2023/08/28 09:19:53;;;;;;;1.80;0.30;;;21.40;99.90;;;;;;4821778;29;20048;-93
2023/08/28 09:22:27;;;;;;;1.13;0.30;;;21.00;99.90;;;;;;4815916;29;20407;-87
2023/08/28 09:24:54;;;;;;;1.15;0.30;;;20.50;99.90;;;;;;4806463;29;20092;-89
2023/08/28 09:27:19;;;;;;;1.15;0.40;;;20.50;99.90;;;;;;4823601;29;20109;-87
2023/08/28 09:29:46;;;;;;;1.42;0.40;;;20.10;99.90;;;;;;4817037;29;20061;-88
2023/08/28 09:32:13;;;;;;;0.55;0.30;;;19.90;99.90;;;;;;4804509;29;20351;-87
2023/08/28 09:34:40;;;;;;;1.13;0.40;;;19.80;99.90;;;;;;4817957;29;20057;-87
2023/08/28 09:37:10;;;;;;;2.47;0.45;;;20.00;99.90;;;;;;4831301;29;20053;-84
2023/08/28 09:39:40;;;;;;;0.75;0.30;;;20.30;99.90;;;;;;4823900;29;20133;-84
2023/08/28 09:42:09;;;;;;;2.00;0.30;;;20.60;99.90;;;;;;4833041;29;20098;-86
2023/08/28 09:44:37;;;;;;;2.67;0.50;;;20.90;99.90;;;;;;4829429;29;20045;-88
2023/08/28 09:47:04;;;;;;;1.25;0.40;;;21.20;99.90;;;;;;4812824;29;20046;-89
2023/08/28 09:49:43;;;;;;;1.33;0.43;;;21.40;99.90;;;;;;4827507;29;20073;-90
2023/08/28 09:52:11;;;;;;;6.45;0.98;;;20.90;99.90;;;;;;4831785;29;20626;-87
2023/08/28 09:54:36;;;;;;;2.88;0.65;;;20.10;99.90;;;;;;4832577;29;20521;-88
2023/08/28 09:57:14;;;;;;;1.60;0.50;;;19.50;99.90;;;;;;4817540;29;20050;-88
2023/08/28 09:59:40;;;;;;;;;;;19.00;99.90;;;;;;4817494;29;20052;-87
2023/08/28 10:02:08;;;;;;;0.70;0.45;;;18.60;99.90;;;;;;4814790;29;19924;-87
2023/08/28 10:04:35;;;;;;;2.83;0.60;;;18.40;99.90;;;;;;4820842;29;20072;-85
2023/08/28 10:07:11;;;;;;;0.90;0.40;;;18.20;99.90;;;;;;4821929;29;20191;-84
2023/08/28 10:09:39;;;;;;;;;;;18.10;99.90;;;;;;4829060;29;20062;-84
2023/08/28 10:12:06;;;;;;;2.05;0.38;;;18.10;99.90;;;;;;4821424;29;19955;-86
2023/08/28 10:14:33;;;;;;;2.03;0.50;;;18.10;99.90;;;;;;4804496;29;20136;-87
2023/08/28 10:17:05;;;;;;;;;;;18.20;99.90;;;;;;4812631;29;20089;-87
2023/08/28 10:19:36;;;;;;;2.15;0.50;;;18.20;99.90;;;;;;4835718;29;19927;-88
2023/08/28 10:22:06;;;;;;;2.30;0.50;;;18.30;99.90;;;;;;4819684;29;20489;-89
2023/08/28 10:24:35;;;;;;;1.95;0.40;;;18.40;99.90;;;;;;4821388;29;20053;-87
2023/08/28 10:27:02;;;;;;;0.93;0.30;;;18.50;99.90;;;;;;4814960;29;20116;-90
2023/08/28 10:29:30;;;;;;;2.80;0.40;;;18.50;99.90;;;;;;4843658;29;20050;-89
2023/08/28 10:31:56;;;;;;;3.03;0.32;;;18.80;99.90;;;;;;4811513;29;20041;-92
2023/08/28 10:34:24;;;;;;;3.97;0.63;;;19.00;99.90;;;;;;4812234;29;20103;-89
2023/08/28 10:36:51;;;;;;;2.90;0.93;;;19.10;99.90;;;;;;4829421;29;20046;-90
2023/08/28 10:39:17;;;;;;;1.85;0.57;;;19.40;99.90;;;;;;4830246;29;20129;-88
2023/08/28 10:41:46;;;;;;;3.03;0.30;;;19.50;99.90;;;;;;4801116;29;20133;-90
2023/08/28 10:44:13;;;;;;;1.10;0.30;;;19.50;99.90;;;;;;4789215;29;20088;-93
2023/08/28 10:46:40;;;;;;;1.25;0.50;;;19.50;99.90;;;;;;4805315;29;20105;-92
2023/08/28 10:49:06;;;;;;;2.58;0.43;;;19.60;99.90;;;;;;4814702;29;20075;-93
2023/08/28 10:51:36;;;;;;;2.17;0.57;;;19.60;99.90;;;;;;4805874;29;20073;-92
2023/08/28 10:54:11;;;;;;;1.20;0.30;;;19.60;99.90;;;;;;4812361;29;20037;-83
2023/08/28 10:56:38;;;;;;;0.75;0.43;;;19.50;99.90;;;;;;4808042;29;20052;-82
2023/08/28 10:59:29;;;;;;;0.90;0.30;;;19.60;99.90;;;;;;4803270;29;20406;-83
2023/08/28 11:01:57;;;;;;;1.42;0.45;;;19.60;99.90;;;;;;4822873;29;20307;-83
2023/08/28 11:04:43;;;;;;;0.93;0.40;;;19.80;99.90;;;;;;4814662;29;20140;-88
2023/08/28 11:07:21;;;;;;;1.98;0.32;;;20.00;99.90;;;;;;4796635;29;20403;-85
2023/08/28 11:09:47;;;;;;;0.93;0.30;;;20.20;99.90;;;;;;4831116;29;20042;-87
2023/08/28 11:12:13;;;;;;;1.23;0.45;;;20.50;99.90;;;;;;4819250;29;20080;-85
2023/08/28 11:14:55;;;;;;;1.10;0.30;;;20.70;99.90;;;;;;4821063;29;20068;-86
2023/08/28 11:17:23;;;;;;;1.30;0.50;;;20.80;99.90;;;;;;4832221;29;20413;-87
2023/08/28 11:19:55;;;;;;;2.83;0.80;;;20.70;99.90;;;;;;4804409;29;20049;-84
2023/08/28 11:22:32;;;;;;;2.38;0.60;;;20.60;99.90;;;;;;4826150;29;20053;-87
2023/08/28 11:24:59;;;;;;;2.03;0.43;;;20.30;99.90;;;;;;4808668;29;20056;-87
2023/08/28 11:27:34;;;;;;;1.52;0.40;;;20.00;99.90;;;;;;4830458;29;20530;-86
2023/08/28 11:30:05;;;;;;;2.05;0.98;;;19.70;99.90;;;;;;4800719;29;20078;-86
2023/08/28 11:32:32;;;;;;;1.00;0.38;;;19.40;99.90;;;;;;4832854;29;20042;-87
2023/08/28 11:35:04;;;;;;;2.10;0.40;;;19.20;99.90;;;;;;4814991;29;20046;-87
2023/08/28 11:37:39;;;;;;;1.80;0.32;;;19.00;99.90;;;;;;4805818;29;20042;-88
2023/08/28 11:40:10;;;;;;;2.47;0.50;;;18.90;99.90;;;;;;4812641;29;20201;-88
2023/08/28 11:42:37;;;;;;;2.90;0.52;;;18.80;99.90;;;;;;4821842;29;20343;-89
2023/08/28 11:45:19;;;;;;;1.38;0.50;;;18.80;99.90;;;;;;4826630;29;20076;-87
2023/08/28 11:47:51;;;;;;;1.50;0.30;;;18.70;99.90;;;;;;4833374;29;20643;-89
2023/08/28 11:50:18;;;;;;;2.45;0.50;;;18.60;99.90;;;;;;4828535;29;20509;-91
2023/08/28 11:52:48;;;;;;;1.10;0.30;;;18.50;99.90;;;;;;4822047;29;20479;-88
2023/08/28 11:55:14;;;;;;;;;;;18.60;99.90;;;;;;4828358;29;20502;-89
2023/08/28 11:57:40;;;;;;;0.90;0.30;;;18.50;99.90;;;;;;4810493;29;19932;-87
2023/08/28 12:00:11;;;;;;;0.90;0.50;;;18.50;99.90;;;;;;4793655;29;20122;-87
2023/08/28 12:02:42;;;;;;;1.77;0.40;;;18.60;99.90;;;;;;4816355;29;20105;-87
2023/08/28 12:05:09;;;;;;;1.02;0.40;;;18.60;99.90;;;;;;4833626;29;20091;-85
2023/08/28 12:07:35;;;;;;;0.50;0.28;;;18.60;99.90;;;;;;4815816;29;20054;-85
2023/08/28 12:10:03;;;;;;;1.42;0.40;;;18.60;99.90;;;;;;4791385;29;20047;-85
2023/08/28 12:12:31;;;;;;;1.13;0.40;;;18.60;99.90;;;;;;4789540;29;20054;-86
2023/08/28 12:14:57;;;;;;;0.43;0.30;;;18.60;99.90;;;;;;4828593;29;20053;-85
2023/08/28 12:17:26;;;;;;;4.93;0.60;;;18.60;99.90;;;;;;4795457;29;20074;-86
2023/08/28 12:19:55;;;;;;;1.42;0.40;;;18.70;99.90;;;;;;4812711;29;20052;-85
2023/08/28 12:22:21;;;;;;;0.55;0.40;;;18.70;99.90;;;;;;4825802;29;20057;-86
2023/08/28 12:24:49;;;;;;;1.48;0.40;;;18.70;99.90;;;;;;4804246;29;20143;-87
2023/08/28 12:27:16;;;;;;;0.40;0.30;;;18.80;99.90;;;;;;4814304;29;20054;-87
2023/08/28 12:29:42;;;;;;;2.05;0.40;;;18.70;99.90;;;;;;4794988;29;20292;-86
2023/08/28 12:32:15;;;;;;;2.40;0.50;;;18.80;99.90;;;;;;4821630;29;20562;-83
2023/08/28 12:34:50;;;;;;;1.65;0.50;;;18.80;99.90;;;;;;4810632;29;20128;-86
2023/08/28 12:37:16;;;;;;;1.35;0.40;;;18.90;99.90;;;;;;4816860;29;20160;-85
2023/08/28 12:39:54;;;;;;;1.77;0.50;;;19.00;99.90;;;;;;4807606;29;20462;-84
2023/08/28 12:42:24;;;;;;;1.23;0.40;;;19.10;99.90;;;;;;4810191;29;20054;-84
2023/08/28 12:44:50;;;;;;;0.73;0.30;;;19.10;99.90;;;;;;4834540;29;20042;-83
2023/08/28 12:47:20;;;;;;;4.03;0.40;;;19.20;99.90;;;;;;4815579;29;20050;-86
2023/08/28 12:49:45;;;;;;;1.05;0.50;;;19.20;99.90;;;;;;4824769;29;20101;-91